Time;durP1;ratioP1;P1;durP2;ratioP2;P2;SDS_P1;SDS_P2;PMS_P1;PMS_P2;Temp;Humidity;BMP_temperature;BMP_pressure;BME280_temperature;BME280_humidity;BME280_pressure;Samples;Min_cycle;Max_cycle;Signal;HPM_P1;HPM_P2
2022/03/11 00:00:35;;;;;;;1999.90;999.90;;;8.10;30.50;;;;;;5113129;28;20544;-72
2022/03/11 00:03:01;;;;;;;1999.90;999.90;;;8.10;30.60;;;;;;5113354;28;20409;-72
2022/03/11 00:05:26;;;;;;;1999.90;999.90;;;8.00;31.40;;;;;;5113309;28;20174;-70
2022/03/11 00:07:52;;;;;;;1999.90;999.90;;;8.00;31.60;;;;;;5116256;28;20682;-71
2022/03/11 00:10:18;;;;;;;1999.90;999.90;;;8.00;31.50;;;;;;5116507;28;20170;-72
2022/03/11 00:12:43;;;;;;;1999.90;999.90;;;7.90;31.80;;;;;;5116340;28;20540;-72
2022/03/11 00:15:09;;;;;;;1999.90;999.90;;;7.80;32.30;;;;;;5116080;28;20169;-72
2022/03/11 00:17:35;;;;;;;1999.90;999.90;;;7.70;32.80;;;;;;5116254;28;20242;-71
2022/03/11 00:20:01;;;;;;;1999.90;999.90;;;7.70;33.20;;;;;;5116149;28;20452;-72
2022/03/11 00:22:28;;;;;;;1999.90;999.90;;;7.60;33.30;;;;;;5116219;28;20208;-71
2022/03/11 00:24:53;;;;;;;1999.90;999.90;;;7.60;33.70;;;;;;5115859;28;20410;-72
2022/03/11 00:27:19;;;;;;;1999.90;999.90;;;7.60;34.00;;;;;;5116060;27;20423;-73
2022/03/11 00:29:45;;;;;;;1999.90;999.90;;;7.60;34.50;;;;;;5116054;28;20582;-72
2022/03/11 00:32:11;;;;;;;1999.90;999.90;;;7.50;33.90;;;;;;5116086;28;20178;-71
2022/03/11 00:34:36;;;;;;;1999.90;999.90;;;7.50;35.50;;;;;;5115669;28;20400;-72
2022/03/11 00:37:02;;;;;;;1999.90;999.90;;;7.50;36.10;;;;;;5115732;28;20449;-72
2022/03/11 00:39:28;;;;;;;1999.90;999.90;;;7.50;35.40;;;;;;5114946;28;20219;-72
2022/03/11 00:41:55;;;;;;;1999.90;999.90;;;7.50;36.30;;;;;;5116333;28;20210;-71
2022/03/11 00:44:20;;;;;;;1999.90;999.90;;;7.40;37.90;;;;;;5115016;28;20220;-72
2022/03/11 00:46:46;;;;;;;1999.90;999.90;;;7.40;37.40;;;;;;5115696;28;20421;-72
2022/03/11 00:49:12;;;;;;;1999.90;999.90;;;7.50;37.30;;;;;;5116720;28;20195;-72
2022/03/11 00:51:38;;;;;;;1999.90;999.90;;;7.40;36.70;;;;;;5116483;28;20834;-71
2022/03/11 00:54:04;;;;;;;1999.90;999.90;;;7.40;36.90;;;;;;5116228;28;20630;-71
2022/03/11 00:56:30;;;;;;;1999.90;999.90;;;7.40;37.20;;;;;;5116925;28;20272;-73
2022/03/11 00:58:57;;;;;;;1999.90;999.90;;;7.40;37.20;;;;;;5117162;28;20450;-72
2022/03/11 01:01:22;;;;;;;1999.90;999.90;;;7.30;37.80;;;;;;5117320;28;20401;-72
2022/03/11 01:03:48;;;;;;;1999.90;999.90;;;7.30;37.80;;;;;;5116558;28;20473;-72
2022/03/11 01:06:14;;;;;;;1999.90;999.90;;;7.30;38.20;;;;;;5115091;28;20182;-71
2022/03/11 01:08:40;;;;;;;1999.90;999.90;;;7.30;38.10;;;;;;5115349;28;20439;-72
2022/03/11 01:11:08;;;;;;;1999.90;999.90;;;7.20;38.60;;;;;;5115192;28;20493;-72
2022/03/11 01:13:34;;;;;;;1999.90;999.90;;;7.20;39.60;;;;;;5116261;28;20188;-73
2022/03/11 01:16:00;;;;;;;1999.90;999.90;;;7.20;39.70;;;;;;5116447;28;20411;-73
2022/03/11 01:18:26;;;;;;;1999.90;999.90;;;7.10;39.40;;;;;;5116444;27;20446;-73
2022/03/11 01:20:52;;;;;;;1999.90;999.90;;;7.10;39.40;;;;;;5116790;28;20408;-73
2022/03/11 01:23:18;;;;;;;1999.90;999.90;;;7.10;39.60;;;;;;5116253;28;20449;-72
2022/03/11 01:25:44;;;;;;;1999.90;999.90;;;7.10;40.20;;;;;;5115275;28;20403;-71
2022/03/11 01:28:09;;;;;;;1999.90;999.90;;;7.00;40.40;;;;;;5114848;28;20431;-72
2022/03/11 01:30:35;;;;;;;1999.90;999.90;;;7.00;40.60;;;;;;5114949;28;20206;-72
2022/03/11 01:33:01;;;;;;;1999.90;999.90;;;7.00;40.90;;;;;;5114810;28;20256;-71
2022/03/11 01:35:26;;;;;;;1999.90;999.90;;;7.00;41.30;;;;;;5114551;28;20545;-72
2022/03/11 01:37:52;;;;;;;1999.90;999.90;;;6.90;41.00;;;;;;5114565;28;20210;-71
2022/03/11 01:40:17;;;;;;;1999.90;999.90;;;6.90;41.60;;;;;;5114667;28;20177;-72
2022/03/11 01:42:43;;;;;;;1999.90;999.90;;;6.80;41.50;;;;;;5113288;28;20197;-71
2022/03/11 01:45:09;;;;;;;1999.90;999.90;;;6.80;42.30;;;;;;5113903;28;20166;-72
2022/03/11 01:47:34;;;;;;;1999.90;999.90;;;6.80;42.40;;;;;;5114509;28;20650;-72
2022/03/11 01:50:00;;;;;;;1999.90;999.90;;;6.80;42.50;;;;;;5114505;28;20169;-72
2022/03/11 01:52:26;;;;;;;1999.90;999.90;;;6.80;43.20;;;;;;5114796;28;20173;-72
2022/03/11 01:54:52;;;;;;;1999.90;999.90;;;6.80;43.80;;;;;;5115683;28;20605;-72
2022/03/11 01:57:18;;;;;;;1999.90;999.90;;;6.70;43.10;;;;;;5115922;28;20459;-73
2022/03/11 01:59:44;;;;;;;1999.90;999.90;;;6.70;44.10;;;;;;5115238;28;20479;-72
2022/03/11 02:02:09;;;;;;;1999.90;999.90;;;6.70;44.40;;;;;;5114367;28;20166;-72
2022/03/11 02:04:35;;;;;;;1999.90;999.90;;;6.70;44.40;;;;;;5113989;28;20168;-71
2022/03/11 02:07:01;;;;;;;1999.90;999.90;;;6.60;44.90;;;;;;5115373;28;20423;-72
2022/03/11 02:09:27;;;;;;;1999.90;999.90;;;6.60;44.90;;;;;;5115618;28;20178;-73
2022/03/11 02:11:53;;;;;;;1999.90;999.90;;;6.60;45.90;;;;;;5115591;28;20422;-72
2022/03/11 02:14:19;;;;;;;1999.90;999.90;;;6.50;46.20;;;;;;5115203;28;20408;-72
2022/03/11 02:16:45;;;;;;;1999.90;999.90;;;6.60;46.10;;;;;;5115344;28;20193;-72
2022/03/11 02:19:10;;;;;;;1999.90;999.90;;;6.50;47.40;;;;;;5114832;28;20209;-72
2022/03/11 02:21:58;;;;;;;1999.90;999.90;;;6.40;48.20;;;;;;5114917;28;20412;-72
2022/03/11 02:24:27;;;;;;;1999.90;999.90;;;6.40;49.00;;;;;;5114916;28;20631;-72
2022/03/11 02:26:53;;;;;;;1999.90;999.90;;;6.40;49.70;;;;;;5114900;28;21002;-72
2022/03/11 02:29:19;;;;;;;1999.90;999.90;;;6.30;50.30;;;;;;5114270;28;20408;-72
2022/03/11 02:31:45;;;;;;;1999.90;999.90;;;6.20;50.80;;;;;;5114156;28;20403;-71
2022/03/11 02:34:10;;;;;;;1999.90;999.90;;;6.20;51.20;;;;;;5113416;28;20173;-72
2022/03/11 02:36:36;;;;;;;1999.90;999.90;;;6.20;51.40;;;;;;5113886;28;20208;-73
2022/03/11 02:39:02;;;;;;;1999.90;999.90;;;6.20;52.70;;;;;;5114967;28;20182;-73
2022/03/11 02:41:27;;;;;;;1999.90;999.90;;;6.10;52.40;;;;;;5114268;28;20169;-72
2022/03/11 02:43:53;;;;;;;1999.90;999.90;;;6.10;54.20;;;;;;5113460;28;20527;-72
2022/03/11 02:46:18;;;;;;;1999.90;999.90;;;6.10;54.40;;;;;;5113227;28;20190;-72
2022/03/11 02:48:44;;;;;;;1999.90;999.90;;;6.10;54.60;;;;;;5113426;28;20220;-72
2022/03/11 02:51:10;;;;;;;1999.90;999.90;;;6.10;54.90;;;;;;5113329;28;20170;-72
2022/03/11 02:53:40;;;;;;;1999.90;999.90;;;6.10;56.00;;;;;;5113295;28;20201;-72
2022/03/11 02:56:08;;;;;;;1999.90;999.90;;;6.10;57.30;;;;;;5113159;28;20173;-72
2022/03/11 02:58:34;;;;;;;1999.90;999.90;;;6.10;57.10;;;;;;5113137;28;20827;-72
2022/03/11 03:01:03;;;;;;;1999.90;999.90;;;6.10;56.40;;;;;;5113471;28;20411;-71
2022/03/11 03:03:29;;;;;;;1999.90;999.90;;;6.20;57.80;;;;;;5113122;28;20404;-72
2022/03/11 03:05:54;;;;;;;1999.90;999.90;;;6.10;58.20;;;;;;5112659;28;20459;-72
2022/03/11 03:08:20;;;;;;;1999.90;999.90;;;6.20;58.60;;;;;;5112970;28;20170;-72
2022/03/11 03:10:46;;;;;;;1999.90;999.90;;;6.20;59.00;;;;;;5113029;28;20181;-71
2022/03/11 03:13:13;;;;;;;1999.90;999.90;;;6.10;58.80;;;;;;5112890;28;20192;-71
2022/03/11 03:15:39;;;;;;;1999.90;999.90;;;6.00;59.00;;;;;;5113583;28;20197;-71
2022/03/11 03:18:05;;;;;;;1999.90;999.90;;;6.00;60.50;;;;;;5113004;28;20841;-72
2022/03/11 03:20:30;;;;;;;1999.90;999.90;;;6.00;61.30;;;;;;5112844;28;20458;-72
2022/03/11 03:22:56;;;;;;;1999.90;999.90;;;6.10;62.40;;;;;;5112697;28;20249;-72
2022/03/11 03:25:22;;;;;;;1999.90;999.90;;;6.00;62.50;;;;;;5112477;28;20158;-71
2022/03/11 03:27:47;;;;;;;1999.90;999.90;;;6.00;63.70;;;;;;5112644;28;20192;-72
2022/03/11 03:30:13;;;;;;;1999.90;999.90;;;6.00;64.50;;;;;;5112929;28;20253;-71
2022/03/11 03:32:42;;;;;;;1999.90;999.90;;;6.00;66.30;;;;;;5113328;28;20653;-71
2022/03/11 03:35:09;;;;;;;1999.90;999.90;;;5.90;67.40;;;;;;5112976;28;20170;-72
2022/03/11 03:37:34;;;;;;;1999.90;999.90;;;5.90;68.60;;;;;;5113526;28;20482;-73
2022/03/11 03:40:00;;;;;;;1999.90;999.90;;;6.00;69.50;;;;;;5113430;28;20478;-72
2022/03/11 03:42:26;;;;;;;1999.90;999.90;;;5.90;71.70;;;;;;5113109;28;20210;-73
2022/03/11 03:44:53;;;;;;;1999.90;999.90;;;6.00;73.30;;;;;;5112983;28;20751;-72
2022/03/11 03:47:19;;;;;;;1999.90;999.90;;;5.90;74.00;;;;;;5112432;28;20184;-72
2022/03/11 03:49:45;;;;;;;1999.90;999.90;;;5.90;76.10;;;;;;5112444;28;20456;-72
2022/03/11 03:52:12;;;;;;;1999.90;999.90;;;5.80;78.10;;;;;;5113064;28;20399;-72
2022/03/11 03:54:39;;;;;;;1999.90;999.90;;;5.90;78.60;;;;;;5112932;28;20173;-72
2022/03/11 03:57:05;;;;;;;1999.90;999.90;;;5.80;81.70;;;;;;5112904;28;21057;-72
2022/03/11 03:59:30;;;;;;;1999.90;999.90;;;5.70;83.30;;;;;;5112688;28;20442;-72
2022/03/11 04:01:56;;;;;;;1999.90;999.90;;;5.70;87.30;;;;;;5112899;28;20403;-73
2022/03/11 04:04:22;;;;;;;1999.90;999.90;;;5.70;90.10;;;;;;5112166;28;20245;-72
2022/03/11 04:06:47;;;;;;;1999.90;999.90;;;5.70;91.00;;;;;;5112183;28;20423;-72
2022/03/11 04:09:13;;;;;;;1999.90;999.90;;;5.70;92.70;;;;;;5112701;28;20166;-72
2022/03/11 04:11:40;;;;;;;1999.90;999.90;;;5.60;93.60;;;;;;5112744;28;20307;-72
2022/03/11 04:14:06;;;;;;;1999.90;999.90;;;5.50;93.90;;;;;;5112745;28;20169;-72
2022/03/11 04:16:32;;;;;;;1999.90;999.90;;;5.50;95.20;;;;;;5112332;28;20997;-72
2022/03/11 04:18:59;;;;;;;1999.90;999.90;;;5.50;96.20;;;;;;5112039;28;20432;-72
2022/03/11 04:21:24;;;;;;;1999.90;999.90;;;5.60;96.10;;;;;;5112460;28;21048;-71
2022/03/11 04:23:51;;;;;;;1999.90;999.90;;;5.60;96.40;;;;;;5112076;28;20404;-71
2022/03/11 04:26:17;;;;;;;1999.90;999.90;;;5.60;97.70;;;;;;5111770;28;20437;-72
2022/03/11 04:28:43;;;;;;;1999.90;999.90;;;5.60;98.70;;;;;;5112522;28;20499;-71
2022/03/11 04:31:10;;;;;;;1999.90;999.90;;;5.60;99.30;;;;;;5112332;28;20494;-71
2022/03/11 04:33:38;;;;;;;1999.90;999.90;;;5.60;99.90;;;;;;5112449;28;20400;-72
2022/03/11 04:36:04;;;;;;;1999.90;999.90;;;5.60;99.90;;;;;;5111720;28;20400;-72
2022/03/11 04:38:31;;;;;;;1999.90;999.90;;;5.60;99.90;;;;;;5112436;28;20451;-72
2022/03/11 04:40:57;;;;;;;1999.90;999.90;;;5.50;99.90;;;;;;5112048;28;20399;-71
2022/03/11 04:43:23;;;;;;;1999.90;999.90;;;5.50;99.90;;;;;;5112063;28;20892;-73
2022/03/11 04:45:49;;;;;;;1999.90;999.90;;;5.50;99.90;;;;;;5111738;28;20486;-73
2022/03/11 04:48:15;;;;;;;1999.90;999.90;;;5.50;99.90;;;;;;5111795;28;20912;-72
2022/03/11 04:50:41;;;;;;;1999.90;999.90;;;5.50;99.90;;;;;;5111864;28;20452;-72
2022/03/11 04:53:06;;;;;;;1999.90;999.90;;;5.50;99.90;;;;;;5114117;28;20915;-72
2022/03/11 04:55:32;;;;;;;1999.90;999.90;;;5.60;99.90;;;;;;5115262;28;20173;-72
2022/03/11 04:57:58;;;;;;;1999.90;999.90;;;5.50;99.90;;;;;;5115444;28;20238;-71
2022/03/11 05:00:24;;;;;;;1999.90;999.90;;;5.50;99.90;;;;;;5115521;28;20166;-72
2022/03/11 05:02:50;;;;;;;1999.90;999.90;;;5.50;99.90;;;;;;5115761;28;20241;-71
2022/03/11 05:05:16;;;;;;;1999.90;999.90;;;5.50;99.90;;;;;;5115859;28;20158;-71
2022/03/11 05:07:42;;;;;;;1999.90;999.90;;;5.50;99.90;;;;;;5116320;28;20411;-71
2022/03/11 05:10:10;;;;;;;1999.90;999.90;;;5.40;99.90;;;;;;5116623;28;20844;-71
2022/03/11 05:12:37;;;;;;;1999.90;999.90;;;5.40;99.90;;;;;;5115870;28;20443;-73
2022/03/11 05:15:04;;;;;;;1999.90;999.90;;;5.40;99.90;;;;;;5114963;28;20446;-72
2022/03/11 05:17:30;;;;;;;1999.90;999.90;;;5.40;99.90;;;;;;5115123;27;20415;-72
2022/03/11 05:19:55;;;;;;;1999.90;999.90;;;5.30;99.90;;;;;;5115543;28;20800;-72
2022/03/11 05:22:21;;;;;;;1999.90;999.90;;;5.30;99.90;;;;;;5115931;28;20168;-72
2022/03/11 05:24:47;;;;;;;1999.90;999.90;;;5.40;99.90;;;;;;5115910;28;20213;-72
2022/03/11 05:27:13;;;;;;;1999.90;999.90;;;5.30;99.90;;;;;;5115955;28;20186;-73
2022/03/11 05:29:40;;;;;;;1999.90;999.90;;;5.30;99.90;;;;;;5116072;28;20406;-72
2022/03/11 05:32:06;;;;;;;1999.90;999.90;;;5.20;99.90;;;;;;5115926;27;20173;-72
2022/03/11 05:34:32;;;;;;;1999.90;999.90;;;5.20;99.90;;;;;;5115248;27;20446;-72
2022/03/11 05:36:58;;;;;;;1999.90;999.90;;;5.20;99.90;;;;;;5114938;28;20467;-72
2022/03/11 05:39:23;;;;;;;1999.90;999.90;;;5.20;99.90;;;;;;5115571;28;21020;-72
2022/03/11 05:41:49;;;;;;;1999.90;999.90;;;5.10;99.90;;;;;;5115472;28;20157;-72
2022/03/11 05:44:18;;;;;;;1999.90;999.90;;;5.10;99.90;;;;;;5114911;28;20162;-72
2022/03/11 05:46:45;;;;;;;1999.90;999.90;;;5.10;99.90;;;;;;5115376;28;20178;-72
2022/03/11 05:49:11;;;;;;;1999.90;999.90;;;5.10;99.90;;;;;;5115656;28;20431;-72
2022/03/11 05:51:37;;;;;;;1999.90;999.90;;;5.10;99.90;;;;;;5115369;28;20773;-72
2022/03/11 05:54:04;;;;;;;1999.90;999.90;;;5.00;99.90;;;;;;5115619;28;20400;-72
2022/03/11 05:56:29;;;;;;;1999.90;999.90;;;5.10;99.90;;;;;;5115162;27;20196;-72
2022/03/11 05:58:55;;;;;;;1999.90;999.90;;;5.10;99.90;;;;;;5115122;28;20439;-72
2022/03/11 06:01:20;;;;;;;1999.90;999.90;;;5.10;99.90;;;;;;5115359;28;20174;-72
2022/03/11 06:03:46;;;;;;;1999.90;999.90;;;5.10;99.90;;;;;;5114306;28;20597;-72
2022/03/11 06:06:15;;;;;;;1999.90;999.90;;;5.10;99.90;;;;;;5113819;28;20248;-72
2022/03/11 06:08:42;;;;;;;1999.90;999.90;;;5.10;99.90;;;;;;5115044;28;20396;-72
2022/03/11 06:11:09;;;;;;;1999.90;999.90;;;5.10;99.90;;;;;;5114985;28;20410;-72
2022/03/11 06:13:35;;;;;;;1999.90;999.90;;;5.10;99.90;;;;;;5115059;28;20412;-72
2022/03/11 06:16:01;;;;;;;1999.90;999.90;;;5.10;99.90;;;;;;5113829;28;20407;-73
2022/03/11 06:18:27;;;;;;;1999.90;999.90;;;5.10;99.90;;;;;;5113891;28;20459;-72
2022/03/11 06:20:53;;;;;;;1999.90;999.90;;;5.20;99.90;;;;;;5113968;28;20896;-73
2022/03/11 06:23:18;;;;;;;1999.90;999.90;;;5.20;99.90;;;;;;5113829;28;20626;-72
2022/03/11 06:25:44;;;;;;;1999.90;999.90;;;5.30;99.90;;;;;;5113613;28;20255;-72
2022/03/11 06:28:10;;;;;;;1999.90;999.90;;;5.30;99.90;;;;;;5113680;28;20193;-72
2022/03/11 06:30:36;;;;;;;1999.90;999.90;;;5.20;99.90;;;;;;5113864;28;20166;-73
2022/03/11 06:33:02;;;;;;;1999.90;999.90;;;5.30;99.90;;;;;;5113727;28;20404;-72
2022/03/11 06:35:27;;;;;;;1999.90;999.90;;;5.30;99.90;;;;;;5113347;28;20166;-72
2022/03/11 06:37:54;;;;;;;1999.90;999.90;;;5.30;99.90;;;;;;5113429;28;20602;-72
2022/03/11 06:40:20;;;;;;;1999.90;999.90;;;5.30;99.90;;;;;;5113530;28;20189;-72
2022/03/11 06:42:47;;;;;;;1999.90;999.90;;;5.40;99.90;;;;;;5113494;28;20927;-72
2022/03/11 06:45:14;;;;;;;1999.90;999.90;;;5.40;99.90;;;;;;5113222;28;20407;-72
2022/03/11 06:47:40;;;;;;;1999.90;999.90;;;5.50;99.90;;;;;;5113348;28;20460;-73
2022/03/11 06:50:07;;;;;;;1999.90;999.90;;;5.60;99.90;;;;;;5113429;28;20966;-72
2022/03/11 06:52:33;;;;;;;1999.90;999.90;;;5.70;99.90;;;;;;5113335;28;20403;-73
2022/03/11 06:54:59;;;;;;;1999.90;999.90;;;5.70;99.90;;;;;;5111837;28;20414;-72
2022/03/11 06:57:25;;;;;;;1999.90;999.90;;;5.70;99.90;;;;;;5113134;28;20427;-72
2022/03/11 06:59:51;;;;;;;1999.90;999.90;;;5.80;99.90;;;;;;5113122;28;20544;-73
2022/03/11 07:02:18;;;;;;;1999.90;999.90;;;5.80;99.90;;;;;;5113093;28;20392;-72
2022/03/11 07:04:44;;;;;;;1999.90;999.90;;;5.80;99.90;;;;;;5112846;28;20161;-72
2022/03/11 07:07:09;;;;;;;1999.90;999.90;;;5.90;99.90;;;;;;5113032;28;20896;-72
2022/03/11 07:09:35;;;;;;;1999.90;999.90;;;6.00;99.90;;;;;;5113451;28;20460;-72
2022/03/11 07:12:03;;;;;;;1999.90;999.90;;;6.10;99.90;;;;;;5114046;28;20235;-72
2022/03/11 07:14:29;;;;;;;1999.90;999.90;;;6.10;99.90;;;;;;5113742;28;20404;-72
2022/03/11 07:16:56;;;;;;;1999.90;999.90;;;6.20;99.90;;;;;;5113806;28;20501;-72
2022/03/11 07:19:27;;;;;;;1999.90;999.90;;;6.20;99.90;;;;;;5114017;28;20446;-72
2022/03/11 07:21:53;;;;;;;1999.90;999.90;;;6.30;99.90;;;;;;5113815;28;20407;-72
2022/03/11 07:24:18;;;;;;;1999.90;999.90;;;6.30;99.90;;;;;;5112770;28;20399;-73
2022/03/11 07:26:44;;;;;;;1999.90;999.90;;;6.30;99.90;;;;;;5112690;28;20472;-72
2022/03/11 07:29:10;;;;;;;1999.90;999.90;;;6.40;99.90;;;;;;5112664;28;20527;-72
2022/03/11 07:31:35;;;;;;;1999.90;999.90;;;6.40;99.90;;;;;;5112637;28;20173;-72
2022/03/11 07:34:01;;;;;;;1999.90;999.90;;;6.40;99.90;;;;;;5112709;28;20641;-72
2022/03/11 07:36:27;;;;;;;1999.90;999.90;;;6.50;99.90;;;;;;5112479;28;20193;-74
2022/03/11 07:38:53;;;;;;;1999.90;999.90;;;6.60;99.90;;;;;;5112556;28;20584;-73
2022/03/11 07:41:20;;;;;;;1999.90;999.90;;;6.70;99.90;;;;;;5112714;28;20252;-73
2022/03/11 07:43:46;;;;;;;1999.90;999.90;;;6.70;99.90;;;;;;5112732;27;20410;-72
2022/03/11 07:46:14;;;;;;;1999.90;999.90;;;6.80;99.90;;;;;;5112359;28;20423;-72
2022/03/11 07:48:40;;;;;;;1999.90;999.90;;;6.90;99.90;;;;;;5112770;28;20468;-74
2022/03/11 07:51:06;;;;;;;1999.90;999.90;;;7.00;99.90;;;;;;5112824;28;20852;-74
2022/03/11 07:53:31;;;;;;;1999.90;999.90;;;7.00;99.90;;;;;;5112596;28;20464;-73
2022/03/11 07:55:57;;;;;;;1999.90;999.90;;;7.00;99.90;;;;;;5112289;28;20199;-73
2022/03/11 07:58:24;;;;;;;1999.90;999.90;;;7.00;99.90;;;;;;5112423;28;20195;-73
2022/03/11 08:00:50;;;;;;;1999.90;999.90;;;7.10;99.90;;;;;;5112421;28;20507;-73
2022/03/11 08:03:16;;;;;;;1999.90;999.90;;;7.20;99.90;;;;;;5112341;28;20407;-72
2022/03/11 08:05:42;;;;;;;1999.90;999.90;;;7.10;99.90;;;;;;5112112;28;20406;-72
2022/03/11 08:08:08;;;;;;;1999.90;999.90;;;7.20;99.90;;;;;;5112321;28;20505;-73
2022/03/11 08:10:36;;;;;;;1999.90;999.90;;;7.20;99.90;;;;;;5112299;28;20968;-73
2022/03/11 08:13:02;;;;;;;1999.90;999.90;;;7.20;99.90;;;;;;5111701;28;20166;-73
2022/03/11 08:15:28;;;;;;;1999.90;999.90;;;7.30;99.90;;;;;;5113210;28;20399;-72
2022/03/11 08:17:54;;;;;;;1999.90;999.90;;;7.30;99.90;;;;;;5113293;28;20428;-72
2022/03/11 08:20:20;;;;;;;1999.90;999.90;;;7.20;99.90;;;;;;5113545;28;20342;-72
2022/03/11 08:22:45;;;;;;;1999.90;999.90;;;7.30;99.90;;;;;;5113605;28;20538;-72
2022/03/11 08:25:12;;;;;;;1999.90;999.90;;;7.40;99.90;;;;;;5112105;28;20791;-73
2022/03/11 08:27:41;;;;;;;1999.90;999.90;;;7.40;99.90;;;;;;5113673;28;20188;-73
2022/03/11 08:30:08;;;;;;;1999.90;999.90;;;7.40;99.90;;;;;;5116017;27;20904;-73
2022/03/11 08:32:34;;;;;;;1999.90;999.90;;;7.60;99.90;;;;;;5116086;28;20407;-73
2022/03/11 08:35:00;;;;;;;1999.90;999.90;;;7.60;99.90;;;;;;5115732;28;20410;-72
2022/03/11 08:37:26;;;;;;;1999.90;999.90;;;7.70;99.90;;;;;;5115744;28;20237;-72
2022/03/11 08:39:52;;;;;;;1999.90;999.90;;;7.80;99.90;;;;;;5112494;28;20284;-72
2022/03/11 08:42:17;;;;;;;1999.90;999.90;;;7.90;99.90;;;;;;5114659;28;20162;-72
2022/03/11 08:44:43;;;;;;;1999.90;999.90;;;8.00;99.90;;;;;;5114520;28;20413;-73
2022/03/11 08:47:09;;;;;;;1999.90;999.90;;;8.10;99.90;;;;;;5114818;28;20201;-73
2022/03/11 08:49:35;;;;;;;1999.90;999.90;;;8.20;99.90;;;;;;5114933;28;20165;-73
2022/03/11 08:52:01;;;;;;;1999.90;999.90;;;8.20;99.90;;;;;;5115164;28;20403;-73
2022/03/11 08:54:26;;;;;;;1999.90;999.90;;;8.30;99.90;;;;;;5114450;28;20681;-72
2022/03/11 08:56:53;;;;;;;1999.90;999.90;;;8.40;99.90;;;;;;5115070;28;20194;-72
2022/03/11 08:59:19;;;;;;;1999.90;999.90;;;8.40;99.90;;;;;;5105491;28;20505;-71
2022/03/11 09:01:45;;;;;;;1999.90;999.90;;;8.50;99.90;;;;;;5104058;28;20790;-73
2022/03/11 09:04:10;;;;;;;1999.90;999.90;;;8.50;99.90;;;;;;5107482;28;20916;-73
2022/03/11 09:06:36;;;;;;;1999.90;999.90;;;8.60;99.90;;;;;;5109721;28;20254;-71
2022/03/11 09:09:02;;;;;;;1999.90;999.90;;;8.80;99.90;;;;;;5105575;28;20176;-74
2022/03/11 09:11:28;;;;;;;1999.90;999.90;;;8.80;99.90;;;;;;5107024;28;20575;-73
2022/03/11 09:13:54;;;;;;;1999.90;999.90;;;8.90;99.70;;;;;;5101336;28;20414;-72
2022/03/11 09:16:20;;;;;;;1999.90;999.90;;;8.90;99.20;;;;;;5099363;28;20186;-70
2022/03/11 09:18:46;;;;;;;1999.90;999.90;;;8.90;98.20;;;;;;5110049;28;20473;-68
2022/03/11 09:21:12;;;;;;;1999.90;999.90;;;8.90;97.70;;;;;;5095105;28;20183;-70
2022/03/11 09:23:39;;;;;;;1999.90;999.90;;;8.90;99.10;;;;;;5093601;28;20175;-71
2022/03/11 09:26:05;;;;;;;1999.90;999.90;;;9.10;98.20;;;;;;5092898;28;20402;-71
2022/03/11 09:28:31;;;;;;;1999.90;999.90;;;9.10;97.20;;;;;;5093849;28;20876;-71
2022/03/11 09:30:57;;;;;;;1999.90;999.90;;;9.20;96.30;;;;;;5094080;28;20425;-72
2022/03/11 09:33:23;;;;;;;1999.90;999.90;;;9.20;97.30;;;;;;5093914;28;20408;-72
2022/03/11 09:35:48;;;;;;;1999.90;999.90;;;9.40;97.20;;;;;;5093876;28;20797;-72
2022/03/11 09:38:14;;;;;;;1999.90;999.90;;;9.50;98.20;;;;;;5093849;28;20251;-72
2022/03/11 09:40:43;;;;;;;1999.90;999.90;;;9.60;95.40;;;;;;5093745;28;20247;-72
2022/03/11 09:43:11;;;;;;;1999.90;999.90;;;9.70;95.60;;;;;;5093916;28;20198;-72
2022/03/11 09:45:37;;;;;;;1999.90;999.90;;;9.90;96.10;;;;;;5093798;28;20808;-72
2022/03/11 09:48:04;;;;;;;1999.90;999.90;;;10.00;95.10;;;;;;5093340;28;20431;-72
2022/03/11 09:50:30;;;;;;;1999.90;999.90;;;10.10;93.30;;;;;;5093787;28;20451;-72
2022/03/11 09:52:56;;;;;;;1999.90;999.90;;;10.30;93.30;;;;;;5093826;28;20815;-73
2022/03/11 09:55:22;;;;;;;1999.90;999.90;;;10.40;94.60;;;;;;5093342;28;20176;-72
2022/03/11 09:57:47;;;;;;;1999.90;999.90;;;10.50;92.60;;;;;;5093913;28;20518;-72
2022/03/11 10:00:13;;;;;;;1999.90;999.90;;;10.60;90.60;;;;;;5093488;28;20201;-73
2022/03/11 10:02:44;;;;;;;1999.90;999.90;;;10.60;91.40;;;;;;5093178;28;20173;-72
2022/03/11 10:05:10;;;;;;;1999.90;999.90;;;10.60;90.00;;;;;;5093412;28;20981;-72
2022/03/11 10:07:36;;;;;;;1999.90;999.90;;;10.70;89.60;;;;;;5093588;28;20427;-72
2022/03/11 10:10:14;;;;;;;1999.90;999.90;;;10.80;91.10;;;;;;5093222;28;20946;-72
2022/03/11 10:12:45;;;;;;;1999.90;999.90;;;10.80;89.40;;;;;;5093475;28;20168;-72
2022/03/11 10:15:12;;;;;;;1999.90;999.90;;;11.00;90.00;;;;;;5093447;28;20413;-72
2022/03/11 10:17:42;;;;;;;1999.90;999.90;;;11.10;88.70;;;;;;5093172;28;20436;-72
2022/03/11 10:20:17;;;;;;;1999.90;999.90;;;11.20;89.90;;;;;;5093826;28;20554;-72
2022/03/11 10:22:45;;;;;;;1999.90;999.90;;;11.30;85.10;;;;;;5093753;28;20406;-72
2022/03/11 10:25:20;;;;;;;1999.90;999.90;;;11.30;86.00;;;;;;5093247;28;20411;-73
2022/03/11 10:28:00;;;;;;;1999.90;999.90;;;11.30;81.50;;;;;;5093580;28;20798;-73
2022/03/11 10:30:26;;;;;;;1999.90;999.90;;;11.40;84.90;;;;;;5093514;28;20464;-73
2022/03/11 10:32:53;;;;;;;1999.90;999.90;;;11.50;80.10;;;;;;5093443;28;20917;-73
2022/03/11 10:35:19;;;;;;;1999.90;999.90;;;11.60;82.40;;;;;;5093144;28;20755;-73
2022/03/11 10:37:57;;;;;;;1999.90;999.90;;;11.80;80.90;;;;;;5092943;28;20524;-73
2022/03/11 10:40:22;;;;;;;1999.90;999.90;;;11.80;77.50;;;;;;5092580;28;20508;-73
2022/03/11 10:42:48;;;;;;;1999.90;999.90;;;11.90;78.10;;;;;;5092073;28;20400;-73
2022/03/11 10:45:14;;;;;;;1999.90;999.90;;;12.00;76.90;;;;;;5092077;28;20539;-73
2022/03/11 10:47:41;;;;;;;1999.90;999.90;;;12.20;78.50;;;;;;5092503;28;20276;-73
2022/03/11 10:50:12;;;;;;;1999.90;999.90;;;12.30;73.60;;;;;;5107861;28;20216;-71
2022/03/11 10:52:43;;;;;;;1999.90;999.90;;;12.50;74.50;;;;;;5112080;28;20416;-70
2022/03/11 10:55:27;;;;;;;1999.90;999.90;;;12.60;70.60;;;;;;5109443;28;20413;-72
2022/03/11 10:57:54;;;;;;;1999.90;999.90;;;12.70;69.70;;;;;;5110983;28;20421;-71
2022/03/11 11:00:25;;;;;;;1999.90;999.90;;;12.80;69.00;;;;;;5106740;28;20514;-72
2022/03/11 11:02:53;;;;;;;1999.90;999.90;;;12.90;66.20;;;;;;5106147;28;20448;-72
2022/03/11 11:05:19;;;;;;;1999.90;999.90;;;13.10;68.00;;;;;;5105725;28;20404;-74
2022/03/11 11:07:45;;;;;;;1999.90;999.90;;;13.00;65.60;;;;;;5104045;28;20476;-72
2022/03/11 11:10:13;;;;;;;1999.90;999.90;;;12.90;65.90;;;;;;5092328;28;20912;-71
2022/03/11 11:12:40;;;;;;;1999.90;999.90;;;12.90;64.30;;;;;;5091874;28;20408;-71
2022/03/11 11:15:06;;;;;;;1999.90;999.90;;;12.80;66.90;;;;;;5092519;28;20413;-72
2022/03/11 11:17:35;;;;;;;1999.90;999.90;;;13.00;68.00;;;;;;5093386;28;20903;-73
2022/03/11 11:20:04;;;;;;;1999.90;999.90;;;13.10;65.10;;;;;;5093396;28;20915;-72
2022/03/11 11:22:31;;;;;;;1999.90;999.90;;;13.10;65.00;;;;;;5091167;28;20430;-71
2022/03/11 11:25:01;;;;;;;1999.90;999.90;;;13.20;62.30;;;;;;5091740;28;20826;-71
2022/03/11 11:27:30;;;;;;;1999.90;999.90;;;13.10;64.80;;;;;;5091786;28;20520;-71
2022/03/11 11:29:57;;;;;;;1999.90;999.90;;;13.20;62.50;;;;;;5091450;28;20407;-70
2022/03/11 11:32:23;;;;;;;1999.90;999.90;;;13.20;63.40;;;;;;5091817;28;20926;-73
2022/03/11 11:34:48;;;;;;;1999.90;999.90;;;13.30;58.70;;;;;;5091476;28;20405;-73
2022/03/11 11:37:38;;;;;;;1999.90;999.90;;;13.30;59.30;;;;;;5091281;28;20949;-73
2022/03/11 11:40:24;;;;;;;1999.90;999.90;;;13.30;59.10;;;;;;5091729;28;20199;-73
2022/03/11 11:43:31;;;;;;;1999.90;999.90;;;13.30;58.40;;;;;;5091601;28;20467;-73
2022/03/11 11:46:03;;;;;;;1999.90;999.90;;;13.50;58.40;;;;;;5089185;28;20412;-73
2022/03/11 11:48:45;;;;;;;1999.90;999.90;;;13.90;58.70;;;;;;5091758;28;20401;-73
2022/03/11 11:51:15;;;;;;;1999.90;999.90;;;14.40;57.10;;;;;;5091670;28;20403;-73
2022/03/11 11:53:53;;;;;;;1999.90;999.90;;;14.90;53.50;;;;;;5091011;28;20412;-74
2022/03/11 11:56:37;;;;;;;1999.90;999.90;;;15.50;50.20;;;;;;5091357;28;20425;-73
2022/03/11 11:59:25;;;;;;;1999.90;999.90;;;16.00;46.70;;;;;;5091528;28;20476;-73
2022/03/11 12:01:56;;;;;;;1999.90;999.90;;;16.50;45.40;;;;;;5091992;28;20487;-73
2022/03/11 12:04:25;;;;;;;1999.90;999.90;;;16.70;43.60;;;;;;5095343;28;20862;-74